sensor_id;sensor_type;location;lat;lon;timestamp;temperature;humidity
20315;DHT22;10315;50.958;13.080;2024-01-30T00:04:06;3.60;99.90
20315;DHT22;10315;50.958;13.080;2024-01-30T00:14:09;3.60;99.90
20315;DHT22;10315;50.958;13.080;2024-01-30T00:24:11;3.60;99.90
20315;DHT22;10315;50.958;13.080;2024-01-30T00:34:14;3.20;99.90
20315;DHT22;10315;50.958;13.080;2024-01-30T00:44:15;3.10;99.90
20315;DHT22;10315;50.958;13.080;2024-01-30T00:54:18;3.30;99.90
20315;DHT22;10315;50.958;13.080;2024-01-30T01:04:20;3.10;99.90
20315;DHT22;10315;50.958;13.080;2024-01-30T01:14:24;3.30;99.90
20315;DHT22;10315;50.958;13.080;2024-01-30T01:24:25;3.40;99.90
20315;DHT22;10315;50.958;13.080;2024-01-30T01:34:28;3.40;99.90
20315;DHT22;10315;50.958;13.080;2024-01-30T01:44:30;3.10;99.90
20315;DHT22;10315;50.958;13.080;2024-01-30T01:54:33;3.10;99.90
20315;DHT22;10315;50.958;13.080;2024-01-30T02:04:35;3.30;99.90
20315;DHT22;10315;50.958;13.080;2024-01-30T02:14:45;3.40;99.90
20315;DHT22;10315;50.958;13.080;2024-01-30T02:24:48;3.40;99.90
20315;DHT22;10315;50.958;13.080;2024-01-30T02:34:50;3.40;99.90
20315;DHT22;10315;50.958;13.080;2024-01-30T02:44:53;3.50;99.90
20315;DHT22;10315;50.958;13.080;2024-01-30T02:54:54;3.40;99.90
20315;DHT22;10315;50.958;13.080;2024-01-30T03:04:57;3.70;99.90
20315;DHT22;10315;50.958;13.080;2024-01-30T03:14:59;3.80;99.90
20315;DHT22;10315;50.958;13.080;2024-01-30T03:25:02;3.60;99.90
20315;DHT22;10315;50.958;13.080;2024-01-30T03:35:05;3.60;99.90
20315;DHT22;10315;50.958;13.080;2024-01-30T03:45:09;3.60;99.90
20315;DHT22;10315;50.958;13.080;2024-01-30T03:55:10;3.30;99.90
20315;DHT22;10315;50.958;13.080;2024-01-30T04:05:13;3.30;99.90
20315;DHT22;10315;50.958;13.080;2024-01-30T04:15:15;3.60;99.90
20315;DHT22;10315;50.958;13.080;2024-01-30T04:25:18;3.80;99.90
20315;DHT22;10315;50.958;13.080;2024-01-30T04:35:20;3.90;99.90
20315;DHT22;10315;50.958;13.080;2024-01-30T04:45:25;3.70;99.90
20315;DHT22;10315;50.958;13.080;2024-01-30T04:55:26;3.30;99.90
20315;DHT22;10315;50.958;13.080;2024-01-30T05:05:29;3.00;99.90
20315;DHT22;10315;50.958;13.080;2024-01-30T05:15:31;3.00;99.90
20315;DHT22;10315;50.958;13.080;2024-01-30T05:25:34;2.90;99.90
20315;DHT22;10315;50.958;13.080;2024-01-30T05:35:35;3.00;99.90
20315;DHT22;10315;50.958;13.080;2024-01-30T05:45:38;3.20;99.90
20315;DHT22;10315;50.958;13.080;2024-01-30T05:55:40;3.20;99.90
20315;DHT22;10315;50.958;13.080;2024-01-30T06:05:43;3.20;99.90
20315;DHT22;10315;50.958;13.080;2024-01-30T06:15:44;3.10;99.90
20315;DHT22;10315;50.958;13.080;2024-01-30T06:25:47;2.90;99.90
20315;DHT22;10315;50.958;13.080;2024-01-30T06:35:49;2.90;99.90
20315;DHT22;10315;50.958;13.080;2024-01-30T06:45:52;3.00;99.90
20315;DHT22;10315;50.958;13.080;2024-01-30T06:55:53;3.10;99.90
20315;DHT22;10315;50.958;13.080;2024-01-30T07:05:56;3.40;99.90
20315;DHT22;10315;50.958;13.080;2024-01-30T07:15:58;3.60;99.90
20315;DHT22;10315;50.958;13.080;2024-01-30T07:26:01;3.80;99.90
20315;DHT22;10315;50.958;13.080;2024-01-30T07:36:03;4.10;99.90
20315;DHT22;10315;50.958;13.080;2024-01-30T07:46:06;4.30;99.90
20315;DHT22;10315;50.958;13.080;2024-01-30T07:56:07;4.50;99.90
20315;DHT22;10315;50.958;13.080;2024-01-30T08:06:10;4.90;99.90
20315;DHT22;10315;50.958;13.080;2024-01-30T08:16:12;5.20;99.90
20315;DHT22;10315;50.958;13.080;2024-01-30T08:26:15;6.10;99.90
20315;DHT22;10315;50.958;13.080;2024-01-30T08:36:17;6.90;99.90
20315;DHT22;10315;50.958;13.080;2024-01-30T08:46:20;7.50;99.90
20315;DHT22;10315;50.958;13.080;2024-01-30T08:56:21;8.10;99.90
20315;DHT22;10315;50.958;13.080;2024-01-30T09:06:25;8.30;99.90
20315;DHT22;10315;50.958;13.080;2024-01-30T09:16:28;8.70;99.90
20315;DHT22;10315;50.958;13.080;2024-01-30T09:26:31;9.30;99.90
20315;DHT22;10315;50.958;13.080;2024-01-30T09:36:33;8.90;99.90
20315;DHT22;10315;50.958;13.080;2024-01-30T09:46:36;8.60;99.90
20315;DHT22;10315;50.958;13.080;2024-01-30T09:56:37;9.00;99.90
20315;DHT22;10315;50.958;13.080;2024-01-30T10:06:41;9.30;99.90
20315;DHT22;10315;50.958;13.080;2024-01-30T10:16:46;9.60;99.90
20315;DHT22;10315;50.958;13.080;2024-01-30T10:26:49;10.00;99.90
20315;DHT22;10315;50.958;13.080;2024-01-30T10:37:06;10.40;99.90
20315;DHT22;10315;50.958;13.080;2024-01-30T10:47:18;10.60;99.90
20315;DHT22;10315;50.958;13.080;2024-01-30T10:57:23;11.10;99.90
20315;DHT22;10315;50.958;13.080;2024-01-30T11:07:27;11.10;99.90
20315;DHT22;10315;50.958;13.080;2024-01-30T11:17:40;11.40;99.90
20315;DHT22;10315;50.958;13.080;2024-01-30T11:27:43;11.60;99.90
20315;DHT22;10315;50.958;13.080;2024-01-30T11:37:45;11.90;99.90
20315;DHT22;10315;50.958;13.080;2024-01-30T11:47:51;12.50;98.90
20315;DHT22;10315;50.958;13.080;2024-01-30T11:57:55;12.30;98.80
20315;DHT22;10315;50.958;13.080;2024-01-30T12:07:58;12.70;99.10
20315;DHT22;10315;50.958;13.080;2024-01-30T12:18:06;12.80;99.80
20315;DHT22;10315;50.958;13.080;2024-01-30T12:28:09;12.80;99.90
20315;DHT22;10315;50.958;13.080;2024-01-30T12:38:12;13.20;99.90
20315;DHT22;10315;50.958;13.080;2024-01-30T12:48:14;13.10;99.90
20315;DHT22;10315;50.958;13.080;2024-01-30T12:58:16;14.00;99.90
20315;DHT22;10315;50.958;13.080;2024-01-30T13:08:19;14.20;99.90
20315;DHT22;10315;50.958;13.080;2024-01-30T13:18:21;13.60;99.90
20315;DHT22;10315;50.958;13.080;2024-01-30T13:28:23;13.10;99.90
20315;DHT22;10315;50.958;13.080;2024-01-30T13:38:26;12.70;99.90
20315;DHT22;10315;50.958;13.080;2024-01-30T13:48:28;12.30;99.90
20315;DHT22;10315;50.958;13.080;2024-01-30T13:58:31;12.30;99.90
20315;DHT22;10315;50.958;13.080;2024-01-30T14:08:35;12.10;99.90
20315;DHT22;10315;50.958;13.080;2024-01-30T14:18:37;11.80;99.90
20315;DHT22;10315;50.958;13.080;2024-01-30T14:28:39;11.50;99.90
20315;DHT22;10315;50.958;13.080;2024-01-30T14:38:41;11.30;99.90
20315;DHT22;10315;50.958;13.080;2024-01-30T14:48:44;11.30;99.90
20315;DHT22;10315;50.958;13.080;2024-01-30T14:58:46;11.20;99.90
20315;DHT22;10315;50.958;13.080;2024-01-30T15:08:49;11.10;99.90
20315;DHT22;10315;50.958;13.080;2024-01-30T15:18:50;10.90;99.90
20315;DHT22;10315;50.958;13.080;2024-01-30T15:28:53;10.60;99.90
20315;DHT22;10315;50.958;13.080;2024-01-30T15:38:55;10.30;99.90
20315;DHT22;10315;50.958;13.080;2024-01-30T15:48:58;10.10;99.90
20315;DHT22;10315;50.958;13.080;2024-01-30T15:59:00;10.00;99.90
20315;DHT22;10315;50.958;13.080;2024-01-30T16:09:03;9.80;99.90
20315;DHT22;10315;50.958;13.080;2024-01-30T16:19:05;9.80;99.90
20315;DHT22;10315;50.958;13.080;2024-01-30T16:29:08;9.80;99.90
20315;DHT22;10315;50.958;13.080;2024-01-30T16:39:10;9.70;99.90
20315;DHT22;10315;50.958;13.080;2024-01-30T16:49:13;9.60;99.90
20315;DHT22;10315;50.958;13.080;2024-01-30T16:59:14;9.40;99.90
20315;DHT22;10315;50.958;13.080;2024-01-30T17:09:17;9.40;99.90
20315;DHT22;10315;50.958;13.080;2024-01-30T17:19:19;9.20;99.90
20315;DHT22;10315;50.958;13.080;2024-01-30T17:29:22;9.00;99.90
20315;DHT22;10315;50.958;13.080;2024-01-30T17:39:23;8.90;99.90
20315;DHT22;10315;50.958;13.080;2024-01-30T17:49:26;8.80;99.90
20315;DHT22;10315;50.958;13.080;2024-01-30T17:59:30;8.70;99.90
20315;DHT22;10315;50.958;13.080;2024-01-30T18:09:33;8.60;99.90
20315;DHT22;10315;50.958;13.080;2024-01-30T18:19:34;8.70;99.90
20315;DHT22;10315;50.958;13.080;2024-01-30T18:29:37;8.70;99.90
20315;DHT22;10315;50.958;13.080;2024-01-30T18:39:40;8.70;99.90
20315;DHT22;10315;50.958;13.080;2024-01-30T18:49:44;8.70;99.90
20315;DHT22;10315;50.958;13.080;2024-01-30T18:59:46;8.60;99.90
20315;DHT22;10315;50.958;13.080;2024-01-30T19:09:49;8.60;99.90
20315;DHT22;10315;50.958;13.080;2024-01-30T19:19:52;8.50;99.90
20315;DHT22;10315;50.958;13.080;2024-01-30T19:29:55;8.50;99.90
20315;DHT22;10315;50.958;13.080;2024-01-30T19:39:57;8.40;99.90
20315;DHT22;10315;50.958;13.080;2024-01-30T19:50:00;8.30;99.90
20315;DHT22;10315;50.958;13.080;2024-01-30T20:00:02;8.30;99.90
20315;DHT22;10315;50.958;13.080;2024-01-30T20:10:06;8.10;99.90
20315;DHT22;10315;50.958;13.080;2024-01-30T20:20:08;8.10;99.90
20315;DHT22;10315;50.958;13.080;2024-01-30T20:30:12;7.80;99.90
20315;DHT22;10315;50.958;13.080;2024-01-30T20:40:14;7.80;99.90
20315;DHT22;10315;50.958;13.080;2024-01-30T20:50:18;7.80;99.90
20315;DHT22;10315;50.958;13.080;2024-01-30T21:00:20;7.60;99.90
20315;DHT22;10315;50.958;13.080;2024-01-30T21:10:23;7.40;99.90
20315;DHT22;10315;50.958;13.080;2024-01-30T21:20:25;7.30;99.90
20315;DHT22;10315;50.958;13.080;2024-01-30T21:30:28;7.10;99.90
20315;DHT22;10315;50.958;13.080;2024-01-30T21:40:29;7.10;99.90
20315;DHT22;10315;50.958;13.080;2024-01-30T21:50:32;6.90;99.90
20315;DHT22;10315;50.958;13.080;2024-01-30T22:00:34;7.00;99.90
20315;DHT22;10315;50.958;13.080;2024-01-30T22:10:37;7.10;99.90
20315;DHT22;10315;50.958;13.080;2024-01-30T22:20:39;7.20;99.90
20315;DHT22;10315;50.958;13.080;2024-01-30T22:30:42;7.20;99.90
20315;DHT22;10315;50.958;13.080;2024-01-30T22:40:43;7.40;99.90
20315;DHT22;10315;50.958;13.080;2024-01-30T22:50:46;7.30;99.90
20315;DHT22;10315;50.958;13.080;2024-01-30T23:00:48;7.20;99.90
20315;DHT22;10315;50.958;13.080;2024-01-30T23:10:51;7.30;99.90
20315;DHT22;10315;50.958;13.080;2024-01-30T23:20:52;7.30;99.90
20315;DHT22;10315;50.958;13.080;2024-01-30T23:30:55;7.30;99.90
20315;DHT22;10315;50.958;13.080;2024-01-30T23:40:57;7.20;99.90
20315;DHT22;10315;50.958;13.080;2024-01-30T23:51:00;7.10;99.90
